Ammon, Virginia
Current Conditions -  °F | °C
As of 10:55 AM on Friday 21 Nov 2014 (Local Time) from KPTB Reporting Station
Clear Clear  
Wind Chill: 34°   Ceiling: Unl
Heat Index: 41°   Visibility: 10mi
Dew Point:   Wind: 13mph
Humidity: 25%   Direction: 310°NW
Pressure: 30.46"   Gusts: 20mph
Location:  37.16°N, 77.59°W
Report Text: KPTB 211555Z AUTO 31011G17KT 10SM CLR 05/M13 A3046 RMK AO2 T00521135
Loading
Personal Weather Stations






























Interactive Weather Map New forecast layout! Learn more

10-Day Weather Forecast

Advertisements
Track Severe Weather on mobile